sensor_id;sensor_type;location;lat;lon;timestamp;P1;durP1;ratioP1;P2;durP2;ratioP2
60919;SDS011;59039;52.108;19.942;2023-03-13T00:00:49;41.00;;;17.40;;
60919;SDS011;59039;52.108;19.942;2023-03-13T00:03:18;43.10;;;17.30;;
60919;SDS011;59039;52.108;19.942;2023-03-13T00:05:43;40.60;;;19.10;;
60919;SDS011;59039;52.108;19.942;2023-03-13T00:08:08;37.70;;;17.90;;
60919;SDS011;59039;52.108;19.942;2023-03-13T00:10:40;42.60;;;19.50;;
60919;SDS011;59039;52.108;19.942;2023-03-13T00:13:06;38.00;;;17.90;;
60919;SDS011;59039;52.108;19.942;2023-03-13T00:15:32;39.70;;;17.60;;
60919;SDS011;59039;52.108;19.942;2023-03-13T00:17:58;49.10;;;19.80;;
60919;SDS011;59039;52.108;19.942;2023-03-13T00:20:23;41.60;;;19.50;;
60919;SDS011;59039;52.108;19.942;2023-03-13T00:22:49;37.20;;;19.30;;
60919;SDS011;59039;52.108;19.942;2023-03-13T00:25:16;38.60;;;18.30;;
60919;SDS011;59039;52.108;19.942;2023-03-13T00:27:42;38.70;;;19.90;;
60919;SDS011;59039;52.108;19.942;2023-03-13T00:30:07;43.30;;;20.40;;
60919;SDS011;59039;52.108;19.942;2023-03-13T00:32:33;46.50;;;20.10;;
60919;SDS011;59039;52.108;19.942;2023-03-13T00:35:04;49.00;;;20.20;;
60919;SDS011;59039;52.108;19.942;2023-03-13T00:37:30;37.30;;;18.50;;
60919;SDS011;59039;52.108;19.942;2023-03-13T00:39:58;36.30;;;16.40;;
60919;SDS011;59039;52.108;19.942;2023-03-13T00:42:24;36.10;;;14.30;;
60919;SDS011;59039;52.108;19.942;2023-03-13T00:44:49;36.50;;;15.80;;
60919;SDS011;59039;52.108;19.942;2023-03-13T00:47:14;36.30;;;15.10;;
60919;SDS011;59039;52.108;19.942;2023-03-13T00:49:43;31.50;;;14.40;;
60919;SDS011;59039;52.108;19.942;2023-03-13T00:52:08;32.70;;;15.50;;
60919;SDS011;59039;52.108;19.942;2023-03-13T00:54:34;33.10;;;15.10;;
60919;SDS011;59039;52.108;19.942;2023-03-13T00:56:59;40.40;;;15.60;;
60919;SDS011;59039;52.108;19.942;2023-03-13T00:59:24;37.30;;;16.40;;
60919;SDS011;59039;52.108;19.942;2023-03-13T01:01:49;40.30;;;16.40;;
60919;SDS011;59039;52.108;19.942;2023-03-13T01:04:15;39.20;;;18.40;;
60919;SDS011;59039;52.108;19.942;2023-03-13T01:06:41;41.20;;;19.00;;
60919;SDS011;59039;52.108;19.942;2023-03-13T01:09:06;42.20;;;18.40;;
60919;SDS011;59039;52.108;19.942;2023-03-13T01:11:34;35.50;;;16.40;;
60919;SDS011;59039;52.108;19.942;2023-03-13T01:14:04;34.30;;;15.60;;
60919;SDS011;59039;52.108;19.942;2023-03-13T01:16:34;35.90;;;16.80;;
60919;SDS011;59039;52.108;19.942;2023-03-13T01:19:02;49.80;;;17.60;;
60919;SDS011;59039;52.108;19.942;2023-03-13T01:21:32;38.10;;;15.30;;
60919;SDS011;59039;52.108;19.942;2023-03-13T01:23:58;40.50;;;19.10;;
60919;SDS011;59039;52.108;19.942;2023-03-13T01:26:29;70.40;;;33.60;;
60919;SDS011;59039;52.108;19.942;2023-03-13T01:28:54;77.80;;;32.20;;
60919;SDS011;59039;52.108;19.942;2023-03-13T01:31:24;92.20;;;29.50;;
60919;SDS011;59039;52.108;19.942;2023-03-13T01:33:53;53.50;;;18.70;;
60919;SDS011;59039;52.108;19.942;2023-03-13T01:36:21;62.20;;;22.70;;
60919;SDS011;59039;52.108;19.942;2023-03-13T01:38:48;66.10;;;21.50;;
60919;SDS011;59039;52.108;19.942;2023-03-13T01:41:15;44.20;;;17.60;;
60919;SDS011;59039;52.108;19.942;2023-03-13T01:43:41;45.60;;;19.40;;
60919;SDS011;59039;52.108;19.942;2023-03-13T01:54:12;50.00;;;18.30;;
60919;SDS011;59039;52.108;19.942;2023-03-13T01:56:47;41.60;;;17.70;;
60919;SDS011;59039;52.108;19.942;2023-03-13T01:59:40;41.00;;;16.80;;
60919;SDS011;59039;52.108;19.942;2023-03-13T02:02:07;34.10;;;16.00;;
60919;SDS011;59039;52.108;19.942;2023-03-13T02:04:40;45.90;;;17.50;;
60919;SDS011;59039;52.108;19.942;2023-03-13T02:07:16;38.60;;;17.30;;
60919;SDS011;59039;52.108;19.942;2023-03-13T02:12:13;41.00;;;18.10;;
60919;SDS011;59039;52.108;19.942;2023-03-13T02:14:42;35.40;;;16.20;;
60919;SDS011;59039;52.108;19.942;2023-03-13T02:17:10;37.20;;;16.40;;
60919;SDS011;59039;52.108;19.942;2023-03-13T02:19:42;35.10;;;17.50;;
60919;SDS011;59039;52.108;19.942;2023-03-13T02:22:13;39.40;;;17.90;;
60919;SDS011;59039;52.108;19.942;2023-03-13T02:24:46;33.80;;;17.40;;
60919;SDS011;59039;52.108;19.942;2023-03-13T02:27:19;38.60;;;19.30;;
60919;SDS011;59039;52.108;19.942;2023-03-13T02:29:45;42.10;;;20.10;;
60919;SDS011;59039;52.108;19.942;2023-03-13T02:32:11;43.50;;;20.80;;
60919;SDS011;59039;52.108;19.942;2023-03-13T02:34:38;38.40;;;20.60;;
60919;SDS011;59039;52.108;19.942;2023-03-13T02:37:06;41.30;;;19.90;;
60919;SDS011;59039;52.108;19.942;2023-03-13T02:39:32;41.60;;;21.60;;
60919;SDS011;59039;52.108;19.942;2023-03-13T02:41:59;47.10;;;19.50;;
60919;SDS011;59039;52.108;19.942;2023-03-13T02:44:25;39.40;;;18.00;;
60919;SDS011;59039;52.108;19.942;2023-03-13T02:46:51;41.50;;;19.80;;
60919;SDS011;59039;52.108;19.942;2023-03-13T02:49:27;41.50;;;20.10;;
60919;SDS011;59039;52.108;19.942;2023-03-13T02:51:55;46.40;;;21.50;;
60919;SDS011;59039;52.108;19.942;2023-03-13T02:54:26;40.80;;;19.90;;
60919;SDS011;59039;52.108;19.942;2023-03-13T02:56:56;39.60;;;18.10;;
60919;SDS011;59039;52.108;19.942;2023-03-13T02:59:24;41.80;;;19.00;;
60919;SDS011;59039;52.108;19.942;2023-03-13T03:01:49;42.90;;;20.00;;
60919;SDS011;59039;52.108;19.942;2023-03-13T03:04:15;45.90;;;21.00;;
60919;SDS011;59039;52.108;19.942;2023-03-13T03:06:40;42.30;;;22.20;;
60919;SDS011;59039;52.108;19.942;2023-03-13T03:09:05;52.10;;;22.40;;
60919;SDS011;59039;52.108;19.942;2023-03-13T03:11:31;51.10;;;24.00;;
60919;SDS011;59039;52.108;19.942;2023-03-13T03:13:56;46.30;;;25.00;;
60919;SDS011;59039;52.108;19.942;2023-03-13T03:16:22;40.40;;;21.80;;
60919;SDS011;59039;52.108;19.942;2023-03-13T03:18:47;39.70;;;20.70;;
60919;SDS011;59039;52.108;19.942;2023-03-13T03:21:12;43.80;;;21.80;;
60919;SDS011;59039;52.108;19.942;2023-03-13T03:23:38;51.00;;;23.50;;
60919;SDS011;59039;52.108;19.942;2023-03-13T03:26:04;54.10;;;24.00;;
60919;SDS011;59039;52.108;19.942;2023-03-13T03:28:30;44.20;;;22.80;;
60919;SDS011;59039;52.108;19.942;2023-03-13T03:30:56;48.50;;;22.50;;
60919;SDS011;59039;52.108;19.942;2023-03-13T03:33:22;52.80;;;24.40;;
60919;SDS011;59039;52.108;19.942;2023-03-13T03:36:00;45.80;;;22.90;;
60919;SDS011;59039;52.108;19.942;2023-03-13T03:38:26;47.60;;;24.20;;
60919;SDS011;59039;52.108;19.942;2023-03-13T03:40:51;47.00;;;24.10;;
60919;SDS011;59039;52.108;19.942;2023-03-13T03:43:16;47.20;;;23.10;;
60919;SDS011;59039;52.108;19.942;2023-03-13T03:45:44;38.90;;;20.20;;
60919;SDS011;59039;52.108;19.942;2023-03-13T03:48:10;44.00;;;22.10;;
60919;SDS011;59039;52.108;19.942;2023-03-13T03:50:35;46.40;;;22.00;;
60919;SDS011;59039;52.108;19.942;2023-03-13T03:53:01;45.10;;;22.40;;
60919;SDS011;59039;52.108;19.942;2023-03-13T03:55:26;43.50;;;22.90;;
60919;SDS011;59039;52.108;19.942;2023-03-13T03:57:51;42.00;;;20.60;;
60919;SDS011;59039;52.108;19.942;2023-03-13T04:00:17;36.80;;;20.70;;
60919;SDS011;59039;52.108;19.942;2023-03-13T04:02:42;43.20;;;24.00;;
60919;SDS011;59039;52.108;19.942;2023-03-13T04:05:11;46.10;;;24.50;;
60919;SDS011;59039;52.108;19.942;2023-03-13T04:07:36;53.10;;;26.10;;
60919;SDS011;59039;52.108;19.942;2023-03-13T04:10:02;43.40;;;22.10;;
60919;SDS011;59039;52.108;19.942;2023-03-13T04:12:28;42.40;;;22.50;;
60919;SDS011;59039;52.108;19.942;2023-03-13T04:14:53;49.60;;;25.00;;
60919;SDS011;59039;52.108;19.942;2023-03-13T04:17:19;59.70;;;26.70;;
60919;SDS011;59039;52.108;19.942;2023-03-13T04:19:44;47.60;;;25.00;;
60919;SDS011;59039;52.108;19.942;2023-03-13T04:22:10;48.20;;;25.60;;
60919;SDS011;59039;52.108;19.942;2023-03-13T04:24:36;44.20;;;22.10;;
60919;SDS011;59039;52.108;19.942;2023-03-13T04:27:01;42.70;;;23.90;;
60919;SDS011;59039;52.108;19.942;2023-03-13T04:29:26;44.00;;;24.40;;
60919;SDS011;59039;52.108;19.942;2023-03-13T04:31:52;44.10;;;22.60;;
60919;SDS011;59039;52.108;19.942;2023-03-13T04:34:17;50.50;;;25.20;;
60919;SDS011;59039;52.108;19.942;2023-03-13T04:36:42;50.10;;;24.60;;
60919;SDS011;59039;52.108;19.942;2023-03-13T04:39:08;55.10;;;23.00;;
60919;SDS011;59039;52.108;19.942;2023-03-13T04:41:33;51.40;;;21.00;;
60919;SDS011;59039;52.108;19.942;2023-03-13T04:43:58;43.90;;;20.90;;
60919;SDS011;59039;52.108;19.942;2023-03-13T04:46:24;40.80;;;18.10;;
60919;SDS011;59039;52.108;19.942;2023-03-13T04:48:49;38.10;;;20.90;;
60919;SDS011;59039;52.108;19.942;2023-03-13T04:51:14;39.70;;;19.50;;
60919;SDS011;59039;52.108;19.942;2023-03-13T04:53:40;43.40;;;20.10;;
60919;SDS011;59039;52.108;19.942;2023-03-13T04:56:05;37.30;;;19.70;;
60919;SDS011;59039;52.108;19.942;2023-03-13T04:58:31;43.50;;;19.20;;
60919;SDS011;59039;52.108;19.942;2023-03-13T05:00:56;45.20;;;21.20;;
60919;SDS011;59039;52.108;19.942;2023-03-13T05:03:22;43.00;;;21.40;;
60919;SDS011;59039;52.108;19.942;2023-03-13T05:05:48;43.30;;;20.10;;
60919;SDS011;59039;52.108;19.942;2023-03-13T05:08:13;51.10;;;20.70;;
60919;SDS011;59039;52.108;19.942;2023-03-13T05:10:40;44.80;;;19.50;;
60919;SDS011;59039;52.108;19.942;2023-03-13T05:13:06;43.00;;;20.00;;
60919;SDS011;59039;52.108;19.942;2023-03-13T05:15:32;36.10;;;19.00;;
60919;SDS011;59039;52.108;19.942;2023-03-13T05:17:57;39.40;;;18.10;;
60919;SDS011;59039;52.108;19.942;2023-03-13T05:20:23;41.00;;;18.30;;
60919;SDS011;59039;52.108;19.942;2023-03-13T05:22:48;41.20;;;19.10;;
60919;SDS011;59039;52.108;19.942;2023-03-13T05:25:13;42.40;;;18.40;;
60919;SDS011;59039;52.108;19.942;2023-03-13T05:27:39;34.90;;;17.50;;
60919;SDS011;59039;52.108;19.942;2023-03-13T05:30:04;41.30;;;18.80;;
60919;SDS011;59039;52.108;19.942;2023-03-13T05:32:30;43.00;;;19.60;;
60919;SDS011;59039;52.108;19.942;2023-03-13T05:34:56;40.00;;;19.40;;
60919;SDS011;59039;52.108;19.942;2023-03-13T05:37:21;40.40;;;20.10;;
60919;SDS011;59039;52.108;19.942;2023-03-13T05:39:46;41.50;;;20.10;;
60919;SDS011;59039;52.108;19.942;2023-03-13T05:42:15;43.40;;;21.50;;
60919;SDS011;59039;52.108;19.942;2023-03-13T05:44:40;46.30;;;21.70;;
60919;SDS011;59039;52.108;19.942;2023-03-13T05:47:05;36.90;;;19.10;;
60919;SDS011;59039;52.108;19.942;2023-03-13T05:49:31;33.30;;;17.50;;
60919;SDS011;59039;52.108;19.942;2023-03-13T05:51:56;39.70;;;18.60;;
60919;SDS011;59039;52.108;19.942;2023-03-13T05:54:21;40.90;;;19.10;;
60919;SDS011;59039;52.108;19.942;2023-03-13T05:56:47;42.70;;;18.10;;
60919;SDS011;59039;52.108;19.942;2023-03-13T05:59:12;36.70;;;18.60;;
60919;SDS011;59039;52.108;19.942;2023-03-13T06:01:37;37.90;;;19.00;;
60919;SDS011;59039;52.108;19.942;2023-03-13T06:04:03;45.50;;;20.60;;
60919;SDS011;59039;52.108;19.942;2023-03-13T06:06:28;39.50;;;20.20;;
60919;SDS011;59039;52.108;19.942;2023-03-13T06:08:56;44.60;;;21.20;;
60919;SDS011;59039;52.108;19.942;2023-03-13T06:11:21;42.60;;;21.60;;
60919;SDS011;59039;52.108;19.942;2023-03-13T06:13:47;50.10;;;23.40;;
60919;SDS011;59039;52.108;19.942;2023-03-13T06:16:12;51.30;;;22.10;;
60919;SDS011;59039;52.108;19.942;2023-03-13T06:18:37;46.20;;;24.60;;
60919;SDS011;59039;52.108;19.942;2023-03-13T06:21:03;48.40;;;25.20;;
60919;SDS011;59039;52.108;19.942;2023-03-13T06:23:28;49.10;;;25.30;;
60919;SDS011;59039;52.108;19.942;2023-03-13T06:25:54;45.50;;;23.90;;
60919;SDS011;59039;52.108;19.942;2023-03-13T06:28:20;52.70;;;24.30;;
60919;SDS011;59039;52.108;19.942;2023-03-13T06:30:45;46.20;;;25.00;;
60919;SDS011;59039;52.108;19.942;2023-03-13T06:33:11;54.10;;;27.40;;
60919;SDS011;59039;52.108;19.942;2023-03-13T06:35:40;56.80;;;28.40;;
60919;SDS011;59039;52.108;19.942;2023-03-13T06:38:06;55.70;;;27.50;;
60919;SDS011;59039;52.108;19.942;2023-03-13T06:40:31;55.20;;;25.00;;
60919;SDS011;59039;52.108;19.942;2023-03-13T06:42:56;42.80;;;23.20;;
60919;SDS011;59039;52.108;19.942;2023-03-13T06:45:22;43.40;;;22.00;;
60919;SDS011;59039;52.108;19.942;2023-03-13T06:47:47;39.60;;;20.50;;
60919;SDS011;59039;52.108;19.942;2023-03-13T06:50:12;39.10;;;21.10;;
60919;SDS011;59039;52.108;19.942;2023-03-13T06:52:45;37.20;;;19.60;;
60919;SDS011;59039;52.108;19.942;2023-03-13T06:55:11;39.90;;;18.80;;
60919;SDS011;59039;52.108;19.942;2023-03-13T06:57:37;36.20;;;19.10;;
60919;SDS011;59039;52.108;19.942;2023-03-13T07:00:03;38.00;;;19.30;;
60919;SDS011;59039;52.108;19.942;2023-03-13T07:02:29;39.40;;;19.60;;
60919;SDS011;59039;52.108;19.942;2023-03-13T07:04:54;37.80;;;18.70;;
60919;SDS011;59039;52.108;19.942;2023-03-13T07:07:19;43.00;;;19.70;;
60919;SDS011;59039;52.108;19.942;2023-03-13T07:09:48;39.30;;;18.70;;
60919;SDS011;59039;52.108;19.942;2023-03-13T07:12:13;33.30;;;17.40;;
60919;SDS011;59039;52.108;19.942;2023-03-13T07:14:38;37.40;;;17.50;;
60919;SDS011;59039;52.108;19.942;2023-03-13T07:17:04;34.60;;;17.50;;
60919;SDS011;59039;52.108;19.942;2023-03-13T07:19:29;38.10;;;20.60;;
60919;SDS011;59039;52.108;19.942;2023-03-13T07:21:55;38.50;;;18.40;;
60919;SDS011;59039;52.108;19.942;2023-03-13T07:24:20;37.80;;;20.10;;
60919;SDS011;59039;52.108;19.942;2023-03-13T07:26:45;39.30;;;19.20;;
60919;SDS011;59039;52.108;19.942;2023-03-13T07:29:11;41.40;;;21.20;;
60919;SDS011;59039;52.108;19.942;2023-03-13T07:31:36;39.40;;;21.00;;
60919;SDS011;59039;52.108;19.942;2023-03-13T07:34:01;41.90;;;18.60;;
60919;SDS011;59039;52.108;19.942;2023-03-13T07:36:27;26.10;;;15.40;;
60919;SDS011;59039;52.108;19.942;2023-03-13T07:38:52;31.10;;;16.20;;
60919;SDS011;59039;52.108;19.942;2023-03-13T07:41:18;31.10;;;16.60;;
60919;SDS011;59039;52.108;19.942;2023-03-13T07:43:44;34.20;;;16.60;;
60919;SDS011;59039;52.108;19.942;2023-03-13T07:46:11;28.60;;;15.10;;
60919;SDS011;59039;52.108;19.942;2023-03-13T07:48:39;32.50;;;14.60;;
60919;SDS011;59039;52.108;19.942;2023-03-13T07:51:07;31.00;;;14.80;;
60919;SDS011;59039;52.108;19.942;2023-03-13T07:53:36;25.60;;;15.10;;
60919;SDS011;59039;52.108;19.942;2023-03-13T07:56:03;31.20;;;16.00;;
60919;SDS011;59039;52.108;19.942;2023-03-13T07:58:31;30.80;;;14.60;;
60919;SDS011;59039;52.108;19.942;2023-03-13T08:00:58;31.80;;;15.60;;
60919;SDS011;59039;52.108;19.942;2023-03-13T08:03:24;31.10;;;14.70;;
60919;SDS011;59039;52.108;19.942;2023-03-13T08:05:59;32.40;;;16.10;;
60919;SDS011;59039;52.108;19.942;2023-03-13T08:08:29;32.90;;;17.40;;
60919;SDS011;59039;52.108;19.942;2023-03-13T08:10:59;33.80;;;15.10;;
60919;SDS011;59039;52.108;19.942;2023-03-13T08:13:29;32.80;;;15.90;;
60919;SDS011;59039;52.108;19.942;2023-03-13T08:16:12;40.30;;;15.60;;
60919;SDS011;59039;52.108;19.942;2023-03-13T08:18:40;35.30;;;15.80;;
60919;SDS011;59039;52.108;19.942;2023-03-13T08:21:10;33.30;;;15.00;;
60919;SDS011;59039;52.108;19.942;2023-03-13T08:23:40;32.50;;;16.30;;
60919;SDS011;59039;52.108;19.942;2023-03-13T08:26:07;39.60;;;17.60;;
60919;SDS011;59039;52.108;19.942;2023-03-13T08:28:34;35.90;;;18.00;;
60919;SDS011;59039;52.108;19.942;2023-03-13T08:31:08;38.60;;;17.60;;
60919;SDS011;59039;52.108;19.942;2023-03-13T08:33:38;35.20;;;16.40;;
60919;SDS011;59039;52.108;19.942;2023-03-13T08:36:23;41.30;;;19.60;;
60919;SDS011;59039;52.108;19.942;2023-03-13T08:38:54;31.50;;;16.30;;
60919;SDS011;59039;52.108;19.942;2023-03-13T08:41:24;29.80;;;15.90;;
60919;SDS011;59039;52.108;19.942;2023-03-13T08:44:00;31.00;;;13.80;;
60919;SDS011;59039;52.108;19.942;2023-03-13T08:46:32;31.80;;;14.00;;
60919;SDS011;59039;52.108;19.942;2023-03-13T08:48:59;29.90;;;14.10;;
60919;SDS011;59039;52.108;19.942;2023-03-13T08:51:25;31.50;;;14.50;;
60919;SDS011;59039;52.108;19.942;2023-03-13T08:53:52;30.70;;;14.50;;
60919;SDS011;59039;52.108;19.942;2023-03-13T08:56:20;33.40;;;14.00;;
60919;SDS011;59039;52.108;19.942;2023-03-13T08:58:50;34.40;;;14.90;;
60919;SDS011;59039;52.108;19.942;2023-03-13T09:01:18;32.50;;;15.10;;
60919;SDS011;59039;52.108;19.942;2023-03-13T09:03:45;30.10;;;14.70;;
60919;SDS011;59039;52.108;19.942;2023-03-13T09:06:10;37.20;;;15.50;;
60919;SDS011;59039;52.108;19.942;2023-03-13T09:08:36;29.10;;;13.70;;
60919;SDS011;59039;52.108;19.942;2023-03-13T09:11:08;27.10;;;12.30;;
60919;SDS011;59039;52.108;19.942;2023-03-13T09:13:40;26.60;;;12.80;;
60919;SDS011;59039;52.108;19.942;2023-03-13T09:16:11;33.10;;;13.00;;
60919;SDS011;59039;52.108;19.942;2023-03-13T09:18:41;31.50;;;13.10;;
60919;SDS011;59039;52.108;19.942;2023-03-13T09:21:08;33.40;;;15.00;;
60919;SDS011;59039;52.108;19.942;2023-03-13T09:23:37;30.60;;;13.10;;
60919;SDS011;59039;52.108;19.942;2023-03-13T09:26:05;32.70;;;13.70;;
60919;SDS011;59039;52.108;19.942;2023-03-13T09:28:31;28.70;;;13.70;;
60919;SDS011;59039;52.108;19.942;2023-03-13T09:31:05;48.20;;;18.30;;
60919;SDS011;59039;52.108;19.942;2023-03-13T09:33:31;37.00;;;16.80;;
60919;SDS011;59039;52.108;19.942;2023-03-13T09:35:57;35.80;;;16.10;;
60919;SDS011;59039;52.108;19.942;2023-03-13T09:38:22;31.80;;;15.00;;
60919;SDS011;59039;52.108;19.942;2023-03-13T09:40:50;33.20;;;15.40;;
60919;SDS011;59039;52.108;19.942;2023-03-13T09:46:08;31.80;;;13.90;;
60919;SDS011;59039;52.108;19.942;2023-03-13T09:48:41;32.20;;;14.00;;
60919;SDS011;59039;52.108;19.942;2023-03-13T09:51:17;30.80;;;14.10;;
60919;SDS011;59039;52.108;19.942;2023-03-13T09:56:26;32.20;;;13.50;;
60919;SDS011;59039;52.108;19.942;2023-03-13T09:58:57;28.10;;;13.60;;
60919;SDS011;59039;52.108;19.942;2023-03-13T10:01:29;29.50;;;12.80;;
60919;SDS011;59039;52.108;19.942;2023-03-13T10:03:59;31.20;;;14.40;;
60919;SDS011;59039;52.108;19.942;2023-03-13T10:06:34;28.10;;;12.90;;
60919;SDS011;59039;52.108;19.942;2023-03-13T10:09:11;32.50;;;15.00;;
60919;SDS011;59039;52.108;19.942;2023-03-13T10:11:43;30.10;;;12.80;;
60919;SDS011;59039;52.108;19.942;2023-03-13T10:14:36;25.10;;;11.50;;
60919;SDS011;59039;52.108;19.942;2023-03-13T10:17:19;25.40;;;11.80;;
60919;SDS011;59039;52.108;19.942;2023-03-13T10:19:55;25.60;;;11.90;;
60919;SDS011;59039;52.108;19.942;2023-03-13T10:22:25;24.30;;;12.60;;
60919;SDS011;59039;52.108;19.942;2023-03-13T10:24:55;28.20;;;12.80;;
60919;SDS011;59039;52.108;19.942;2023-03-13T10:27:23;28.60;;;12.30;;
60919;SDS011;59039;52.108;19.942;2023-03-13T10:29:49;33.60;;;13.00;;
60919;SDS011;59039;52.108;19.942;2023-03-13T10:32:14;32.80;;;14.00;;
60919;SDS011;59039;52.108;19.942;2023-03-13T10:37:25;26.50;;;13.00;;
60919;SDS011;59039;52.108;19.942;2023-03-13T10:43:05;31.20;;;15.20;;
60919;SDS011;59039;52.108;19.942;2023-03-13T10:45:36;35.20;;;14.10;;
60919;SDS011;59039;52.108;19.942;2023-03-13T10:48:03;26.40;;;12.90;;
60919;SDS011;59039;52.108;19.942;2023-03-13T10:50:35;31.40;;;12.50;;
60919;SDS011;59039;52.108;19.942;2023-03-13T10:53:07;28.90;;;13.50;;
60919;SDS011;59039;52.108;19.942;2023-03-13T10:55:54;34.50;;;13.30;;
60919;SDS011;59039;52.108;19.942;2023-03-13T10:58:26;33.50;;;12.80;;
60919;SDS011;59039;52.108;19.942;2023-03-13T11:01:15;29.80;;;12.90;;
60919;SDS011;59039;52.108;19.942;2023-03-13T11:03:43;32.00;;;13.10;;
60919;SDS011;59039;52.108;19.942;2023-03-13T11:08:57;20.40;;;10.00;;
60919;SDS011;59039;52.108;19.942;2023-03-13T11:14:13;30.90;;;13.10;;
60919;SDS011;59039;52.108;19.942;2023-03-13T11:16:47;33.30;;;12.90;;
60919;SDS011;59039;52.108;19.942;2023-03-13T11:22:12;34.50;;;11.10;;
60919;SDS011;59039;52.108;19.942;2023-03-13T11:27:41;29.70;;;12.30;;
60919;SDS011;59039;52.108;19.942;2023-03-13T11:32:54;27.00;;;9.20;;
60919;SDS011;59039;52.108;19.942;2023-03-13T11:35:32;24.70;;;8.70;;
60919;SDS011;59039;52.108;19.942;2023-03-13T11:37:59;27.70;;;10.40;;
60919;SDS011;59039;52.108;19.942;2023-03-13T11:40:35;22.40;;;11.30;;
60919;SDS011;59039;52.108;19.942;2023-03-13T11:51:32;34.20;;;11.80;;
60919;SDS011;59039;52.108;19.942;2023-03-13T11:56:58;26.90;;;10.70;;
60919;SDS011;59039;52.108;19.942;2023-03-13T12:04:52;30.60;;;12.10;;
60919;SDS011;59039;52.108;19.942;2023-03-13T12:10:09;29.30;;;11.80;;
60919;SDS011;59039;52.108;19.942;2023-03-13T12:15:20;25.80;;;12.80;;
60919;SDS011;59039;52.108;19.942;2023-03-13T12:18:21;36.60;;;13.50;;
60919;SDS011;59039;52.108;19.942;2023-03-13T12:20:55;27.70;;;12.70;;
60919;SDS011;59039;52.108;19.942;2023-03-13T12:31:21;27.20;;;11.20;;
60919;SDS011;59039;52.108;19.942;2023-03-13T12:44:44;56.90;;;22.90;;
60919;SDS011;59039;52.108;19.942;2023-03-13T13:00:36;34.50;;;15.10;;
60919;SDS011;59039;52.108;19.942;2023-03-13T13:05:59;24.40;;;11.10;;
60919;SDS011;59039;52.108;19.942;2023-03-13T13:16:41;25.10;;;10.80;;
60919;SDS011;59039;52.108;19.942;2023-03-13T13:24:53;31.10;;;10.60;;
60919;SDS011;59039;52.108;19.942;2023-03-13T13:29:58;44.20;;;12.80;;
60919;SDS011;59039;52.108;19.942;2023-03-13T13:32:39;53.10;;;17.00;;
60919;SDS011;59039;52.108;19.942;2023-03-13T13:37:46;29.90;;;9.80;;
60919;SDS011;59039;52.108;19.942;2023-03-13T13:47:39;24.80;;;9.80;;
60919;SDS011;59039;52.108;19.942;2023-03-13T13:50:23;27.10;;;11.90;;
60919;SDS011;59039;52.108;19.942;2023-03-13T13:52:51;26.40;;;9.90;;
60919;SDS011;59039;52.108;19.942;2023-03-13T13:58:04;23.40;;;11.70;;
60919;SDS011;59039;52.108;19.942;2023-03-13T14:03:15;22.50;;;9.30;;
60919;SDS011;59039;52.108;19.942;2023-03-13T14:05:43;22.60;;;9.30;;
60919;SDS011;59039;52.108;19.942;2023-03-13T14:08:16;25.00;;;8.00;;
60919;SDS011;59039;52.108;19.942;2023-03-13T14:13:33;23.00;;;10.70;;
60919;SDS011;59039;52.108;19.942;2023-03-13T14:16:08;24.00;;;8.60;;
60919;SDS011;59039;52.108;19.942;2023-03-13T14:18:44;31.00;;;11.50;;
60919;SDS011;59039;52.108;19.942;2023-03-13T14:21:10;32.60;;;11.40;;
60919;SDS011;59039;52.108;19.942;2023-03-13T14:23:36;26.80;;;10.50;;
60919;SDS011;59039;52.108;19.942;2023-03-13T14:28:45;20.40;;;10.90;;
60919;SDS011;59039;52.108;19.942;2023-03-13T14:33:53;21.30;;;8.10;;
60919;SDS011;59039;52.108;19.942;2023-03-13T14:36:20;23.70;;;10.40;;
60919;SDS011;59039;52.108;19.942;2023-03-13T14:38:52;28.20;;;12.10;;
60919;SDS011;59039;52.108;19.942;2023-03-13T14:41:29;22.20;;;9.60;;
60919;SDS011;59039;52.108;19.942;2023-03-13T14:44:10;32.00;;;12.40;;
60919;SDS011;59039;52.108;19.942;2023-03-13T14:46:54;30.90;;;13.00;;
60919;SDS011;59039;52.108;19.942;2023-03-13T14:49:21;24.40;;;12.20;;
60919;SDS011;59039;52.108;19.942;2023-03-13T14:51:57;30.30;;;12.00;;
60919;SDS011;59039;52.108;19.942;2023-03-13T14:54:32;21.60;;;9.10;;
60919;SDS011;59039;52.108;19.942;2023-03-13T14:57:11;28.10;;;12.20;;
60919;SDS011;59039;52.108;19.942;2023-03-13T14:59:39;19.90;;;10.60;;
60919;SDS011;59039;52.108;19.942;2023-03-13T15:07:21;50.80;;;19.50;;
60919;SDS011;59039;52.108;19.942;2023-03-13T15:09:47;33.30;;;14.00;;
60919;SDS011;59039;52.108;19.942;2023-03-13T15:12:18;36.60;;;14.60;;
60919;SDS011;59039;52.108;19.942;2023-03-13T15:14:47;27.90;;;11.20;;
60919;SDS011;59039;52.108;19.942;2023-03-13T15:17:15;32.50;;;11.70;;
60919;SDS011;59039;52.108;19.942;2023-03-13T15:19:53;27.90;;;12.80;;
60919;SDS011;59039;52.108;19.942;2023-03-13T15:22:27;38.70;;;12.00;;
60919;SDS011;59039;52.108;19.942;2023-03-13T15:24:54;47.80;;;15.80;;
60919;SDS011;59039;52.108;19.942;2023-03-13T15:27:20;28.70;;;12.80;;
60919;SDS011;59039;52.108;19.942;2023-03-13T15:29:47;58.20;;;20.10;;
60919;SDS011;59039;52.108;19.942;2023-03-13T15:32:22;46.60;;;16.90;;
60919;SDS011;59039;52.108;19.942;2023-03-13T15:34:53;37.70;;;15.90;;
60919;SDS011;59039;52.108;19.942;2023-03-13T15:37:21;28.20;;;13.10;;
60919;SDS011;59039;52.108;19.942;2023-03-13T15:39:46;34.10;;;15.40;;
60919;SDS011;59039;52.108;19.942;2023-03-13T15:42:12;33.60;;;13.20;;
60919;SDS011;59039;52.108;19.942;2023-03-13T15:44:37;31.40;;;14.50;;
60919;SDS011;59039;52.108;19.942;2023-03-13T15:47:02;32.80;;;14.60;;
60919;SDS011;59039;52.108;19.942;2023-03-13T15:49:28;36.90;;;16.60;;
60919;SDS011;59039;52.108;19.942;2023-03-13T15:51:53;29.70;;;13.30;;
60919;SDS011;59039;52.108;19.942;2023-03-13T15:54:18;34.60;;;12.60;;
60919;SDS011;59039;52.108;19.942;2023-03-13T15:56:44;35.60;;;12.40;;
60919;SDS011;59039;52.108;19.942;2023-03-13T15:59:10;27.00;;;11.60;;
60919;SDS011;59039;52.108;19.942;2023-03-13T16:01:36;24.50;;;10.70;;
60919;SDS011;59039;52.108;19.942;2023-03-13T16:04:02;30.10;;;12.60;;
60919;SDS011;59039;52.108;19.942;2023-03-13T16:06:27;34.20;;;13.00;;
60919;SDS011;59039;52.108;19.942;2023-03-13T16:08:52;31.20;;;13.00;;
60919;SDS011;59039;52.108;19.942;2023-03-13T16:11:18;32.50;;;14.30;;
60919;SDS011;59039;52.108;19.942;2023-03-13T16:13:43;29.80;;;13.50;;
60919;SDS011;59039;52.108;19.942;2023-03-13T16:16:19;47.50;;;17.50;;
60919;SDS011;59039;52.108;19.942;2023-03-13T16:18:45;29.00;;;13.20;;
60919;SDS011;59039;52.108;19.942;2023-03-13T16:21:15;30.60;;;15.80;;
60919;SDS011;59039;52.108;19.942;2023-03-13T16:23:43;32.40;;;14.30;;
60919;SDS011;59039;52.108;19.942;2023-03-13T16:26:11;33.50;;;16.40;;
60919;SDS011;59039;52.108;19.942;2023-03-13T16:28:40;32.10;;;14.70;;
60919;SDS011;59039;52.108;19.942;2023-03-13T16:31:15;26.10;;;12.00;;
60919;SDS011;59039;52.108;19.942;2023-03-13T16:33:44;28.70;;;12.50;;